createdAt,value
2023-03-06T00:00:39.207Z,24.70
2023-03-06T00:10:46.911Z,24.70
2023-03-06T00:20:56.887Z,24.70
2023-03-06T00:31:05.643Z,24.60
2023-03-06T00:41:16.098Z,24.60
2023-03-06T00:51:23.219Z,24.40
2023-03-06T01:01:42.097Z,24.20
2023-03-06T01:11:52.865Z,24.10
2023-03-06T01:22:01.980Z,24.20
2023-03-06T01:32:12.171Z,24.20
2023-03-06T01:42:21.067Z,24.20
2023-03-06T01:52:34.463Z,23.80
2023-03-06T02:02:47.784Z,23.90
2023-03-06T02:12:56.067Z,24.00
2023-03-06T02:23:11.339Z,24.10
2023-03-06T02:33:31.034Z,24.20
2023-03-06T02:44:06.744Z,24.20
2023-03-06T02:55:33.589Z,24.00
2023-03-06T03:39:28.353Z,24.50
2023-03-06T03:50:49.609Z,24.60
2023-03-06T04:01:09.329Z,24.70
2023-03-06T04:11:46.929Z,24.90
2023-03-06T04:23:08.432Z,25.20
2023-03-06T04:45:09.390Z,25.50
2023-03-06T05:08:23.189Z,25.80
2023-03-06T09:12:22.437Z,25.00
2023-03-06T18:46:24.337Z,24.30
2023-03-06T18:56:37.290Z,24.30
2023-03-06T19:06:46.793Z,24.50
2023-03-06T19:29:17.641Z,24.60
2023-03-06T19:39:31.315Z,24.80
2023-03-06T19:49:44.853Z,25.00
2023-03-06T20:00:06.946Z,25.10
2023-03-06T20:47:56.870Z,25.20
2023-03-06T20:58:53.743Z,25.30
2023-03-06T21:09:08.933Z,25.30
2023-03-06T21:19:15.842Z,25.40
2023-03-06T21:29:37.715Z,25.50
2023-03-06T21:40:02.349Z,25.50
2023-03-06T21:50:12.929Z,25.40
2023-03-06T22:00:20.471Z,25.50
2023-03-06T22:10:29.506Z,25.50
2023-03-06T22:20:36.314Z,25.50
2023-03-06T22:30:44.881Z,25.60
2023-03-06T22:40:51.693Z,25.60
2023-03-06T22:51:04.206Z,25.70
2023-03-06T23:01:22.514Z,25.70
2023-03-06T23:11:39.203Z,25.70
2023-03-06T23:22:54.178Z,25.50
2023-03-06T23:33:50.863Z,25.20
2023-03-06T23:44:01.785Z,24.80
2023-03-06T23:54:14.935Z,24.60
